createdAt,value
2022-08-05T00:01:25.247Z,100098.71
2022-08-05T00:06:37.255Z,100096.82
2022-08-05T00:11:49.671Z,100091.83
2022-08-05T00:17:06.119Z,100087.94
2022-08-05T00:22:29.434Z,100087.99
2022-08-05T00:27:39.522Z,100082.79
2022-08-05T00:32:52.492Z,100081.78
2022-08-05T00:38:02.077Z,100080.60
2022-08-05T00:43:11.196Z,100080.89
2022-08-05T00:48:31.277Z,100071.65
2022-08-05T00:54:01.456Z,100072.55
2022-08-05T00:59:09.132Z,100067.20
2022-08-05T01:04:20.306Z,100062.09
2022-08-05T01:09:38.585Z,100059.64
2022-08-05T01:14:54.828Z,100058.56
2022-08-05T01:20:28.751Z,100054.65
2022-08-05T01:26:13.342Z,100051.86
2022-08-05T01:31:29.697Z,100053.11
2022-08-05T01:36:47.010Z,100050.92
2022-08-05T01:41:57.652Z,100053.45
2022-08-05T01:47:06.874Z,100052.86
2022-08-05T01:52:17.958Z,100049.31
2022-08-05T01:58:12.356Z,100046.45
2022-08-05T02:03:06.258Z,100047.79
2022-08-05T02:08:14.549Z,100045.85
2022-08-05T02:13:53.084Z,100042.16
2022-08-05T02:19:10.843Z,100041.61
2022-08-05T02:24:24.997Z,100034.67
2022-08-05T02:29:58.691Z,100028.66
2022-08-05T02:35:13.867Z,100026.37
2022-08-05T02:40:26.103Z,100029.37
2022-08-05T02:45:52.623Z,100029.31
2022-08-05T02:51:04.405Z,100029.63
2022-08-05T02:56:15.743Z,100031.18
2022-08-05T03:01:29.299Z,100027.74
2022-08-05T03:06:54.483Z,100024.86
2022-08-05T03:12:10.191Z,100027.29
2022-08-05T03:17:18.866Z,100022.11
2022-08-05T03:22:32.302Z,100021.80
2022-08-05T03:28:00.093Z,100022.84
2022-08-05T03:33:10.608Z,100024.74
2022-08-05T03:38:23.894Z,100028.07
2022-08-05T03:44:08.335Z,100033.50
2022-08-05T03:49:11.527Z,100034.33
2022-08-05T03:55:51.093Z,100030.23
2022-08-05T04:00:08.267Z,100029.77
2022-08-05T04:05:23.252Z,100029.41
2022-08-05T04:10:37.754Z,100026.23
2022-08-05T04:16:03.114Z,100025.98
2022-08-05T04:21:19.933Z,100021.80
2022-08-05T04:26:43.505Z,100020.04
2022-08-05T04:31:52.553Z,100019.85
2022-08-05T04:37:06.058Z,100013.02
2022-08-05T04:42:14.608Z,100009.66
2022-08-05T04:47:21.926Z,100006.27
2022-08-05T04:52:33.347Z,100006.76
2022-08-05T04:57:41.650Z,100006.16
2022-08-05T05:02:56.033Z,100008.63
2022-08-05T05:08:26.421Z,100010.23
2022-08-05T05:13:42.953Z,100006.39
2022-08-05T05:19:16.546Z,100007.83
2022-08-05T05:24:22.280Z,100009.20
2022-08-05T05:30:04.250Z,100011.79
2022-08-05T05:35:19.970Z,100014.05
2022-08-05T05:40:32.052Z,100018.36
2022-08-05T05:45:42.640Z,100016.91
2022-08-05T05:50:57.084Z,100020.46
2022-08-05T05:56:05.431Z,100020.76
2022-08-05T06:01:15.151Z,100020.23
2022-08-05T06:06:27.737Z,100027.18
2022-08-05T06:11:39.858Z,100025.02
2022-08-05T06:16:47.889Z,100024.44
2022-08-05T06:21:56.298Z,100019.25
2022-08-05T06:27:05.750Z,100015.88
2022-08-05T06:32:28.862Z,100015.55
2022-08-05T06:37:56.082Z,100011.98
2022-08-05T06:43:05.898Z,100012.33
2022-08-05T06:48:52.981Z,100013.87
2022-08-05T06:54:06.856Z,100010.43
2022-08-05T06:59:16.365Z,100004.35
2022-08-05T07:04:24.687Z,99996.02
2022-08-05T07:09:40.405Z,99992.89
2022-08-05T07:15:08.745Z,99995.55
2022-08-05T07:20:32.887Z,99995.21
2022-08-05T07:25:55.167Z,99995.79
2022-08-05T07:31:05.889Z,99994.59
2022-08-05T07:36:20.709Z,99992.71
2022-08-05T07:42:14.318Z,99996.36
2022-08-05T07:47:00.220Z,99995.03
2022-08-05T07:52:09.083Z,99988.66
2022-08-05T07:57:51.164Z,99984.01
2022-08-05T08:03:14.598Z,99978.56
2022-08-05T08:08:16.057Z,99974.11
2022-08-05T08:13:28.958Z,99969.45
2022-08-05T08:18:37.656Z,99968.39
2022-08-05T08:24:03.873Z,99971.49
2022-08-05T08:29:29.449Z,99974.12
2022-08-05T08:34:42.556Z,99974.33
2022-08-05T08:39:50.756Z,99972.65
2022-08-05T08:45:23.751Z,99971.49
2022-08-05T08:51:03.918Z,99958.85
2022-08-05T08:56:04.801Z,99954.47
2022-08-05T09:01:15.856Z,99956.48
2022-08-05T09:06:28.137Z,99948.73
2022-08-05T09:11:50.830Z,99948.41
2022-08-05T09:17:03.394Z,99944.34
2022-08-05T09:22:25.078Z,99939.83
2022-08-05T09:28:04.857Z,99935.15
2022-08-05T09:33:10.073Z,99937.27
2022-08-05T09:38:27.513Z,99935.96
2022-08-05T09:43:42.220Z,99927.01
2022-08-05T09:49:07.264Z,99927.42
2022-08-05T09:54:21.208Z,99925.45
2022-08-05T09:59:38.079Z,99921.09
2022-08-05T10:04:45.683Z,99915.52
2022-08-05T10:10:13.918Z,99912.17
2022-08-05T10:15:34.430Z,99903.48
2022-08-05T10:20:47.719Z,99898.45
2022-08-05T10:25:58.550Z,99894.88
2022-08-05T10:32:49.186Z,99890.13
2022-08-05T10:36:39.506Z,99881.97
2022-08-05T10:42:00.749Z,99877.27
2022-08-05T10:47:26.457Z,99872.30
2022-08-05T10:52:53.675Z,99862.71
2022-08-05T10:58:15.796Z,99852.20
2022-08-05T11:03:27.290Z,99849.22
2022-08-05T11:08:38.155Z,99848.85
2022-08-05T11:13:55.059Z,99841.85
2022-08-05T11:20:16.555Z,99835.40
2022-08-05T11:26:04.343Z,99837.48
2022-08-05T11:31:58.870Z,99840.34
2022-08-05T11:36:57.735Z,99832.25
2022-08-05T11:42:07.237Z,99823.19
2022-08-05T11:47:21.556Z,99820.67
2022-08-05T11:52:31.987Z,99816.93
2022-08-05T11:58:10.422Z,99813.88
2022-08-05T12:03:28.764Z,99817.09
2022-08-05T12:08:49.993Z,99814.73
2022-08-05T12:14:03.999Z,99806.13
2022-08-05T12:20:26.825Z,99801.05
2022-08-05T12:24:49.681Z,99792.64
2022-08-05T12:30:06.813Z,99786.16
2022-08-05T12:35:16.800Z,99783.02
2022-08-05T12:40:33.431Z,99777.09
2022-08-05T12:45:52.186Z,99776.85
2022-08-05T12:52:10.273Z,99774.79
2022-08-05T12:56:53.280Z,99771.23
2022-08-05T13:02:07.221Z,99772.20
2022-08-05T13:07:41.374Z,99764.84
2022-08-05T13:12:57.461Z,99759.77
2022-08-05T13:18:07.862Z,99760.80
2022-08-05T13:23:18.218Z,99751.98
2022-08-05T13:28:32.475Z,99746.76
2022-08-05T13:34:21.584Z,99744.07
2022-08-05T13:40:13.877Z,99734.03
2022-08-05T13:44:42.020Z,99729.92
2022-08-05T13:49:55.569Z,99720.23
2022-08-05T13:55:07.649Z,99721.27
2022-08-05T14:00:27.194Z,99715.37
2022-08-05T14:06:24.529Z,99712.03
2022-08-05T14:11:20.952Z,99706.11
2022-08-05T14:16:31.353Z,99704.73
2022-08-05T14:22:09.659Z,99699.22
2022-08-05T14:27:18.315Z,99700.70
2022-08-05T14:32:28.261Z,99689.48
2022-08-05T14:37:45.650Z,99694.13
2022-08-05T14:42:58.641Z,99691.15
2022-08-05T14:48:08.662Z,99691.14
2022-08-05T14:53:17.960Z,99692.11
2022-08-05T14:58:26.497Z,99692.05
2022-08-05T15:03:39.146Z,99685.05
2022-08-05T15:08:57.749Z,99678.50
2022-08-05T15:14:09.472Z,99680.97
2022-08-05T15:19:23.749Z,99675.69
2022-08-05T15:24:33.947Z,99672.51
2022-08-05T15:29:49.225Z,99665.38
2022-08-05T15:34:57.542Z,99653.71
2022-08-05T15:40:58.699Z,99654.77
2022-08-05T15:45:38.378Z,99655.98
2022-08-05T15:50:51.007Z,99657.06
2022-08-05T15:56:04.252Z,99657.59
2022-08-05T16:01:17.927Z,99663.77
2022-08-05T16:06:26.373Z,99666.36
2022-08-05T16:11:40.095Z,99661.52
2022-08-05T16:16:52.521Z,99659.47
2022-08-05T16:22:03.333Z,99655.52
2022-08-05T16:27:16.003Z,99655.25
2022-08-05T16:32:29.105Z,99649.48
2022-08-05T16:38:16.767Z,99653.45
2022-08-05T16:43:09.744Z,99646.42
2022-08-05T16:48:25.283Z,99637.86
2022-08-05T16:54:06.201Z,99641.48
2022-08-05T16:59:07.677Z,99641.80
2022-08-05T17:04:18.624Z,99641.60
2022-08-05T17:09:27.429Z,99642.34
2022-08-05T17:14:38.402Z,99637.77
2022-08-05T17:19:55.499Z,99637.99
2022-08-05T17:25:09.714Z,99636.86
2022-08-05T17:30:32.318Z,99636.84
2022-08-05T17:36:08.050Z,99639.31
2022-08-05T17:41:11.697Z,99634.16
2022-08-05T17:46:38.907Z,99632.56
2022-08-05T17:51:50.100Z,99632.73
2022-08-05T17:56:58.711Z,99631.00
2022-08-05T18:02:10.753Z,99632.27
2022-08-05T18:07:19.418Z,99639.11
2022-08-05T18:12:28.804Z,99639.06
2022-08-05T18:17:59.491Z,99640.70
2022-08-05T18:23:09.311Z,99642.04
2022-08-05T18:28:21.850Z,99640.54
2022-08-05T18:33:46.570Z,99643.30
2022-08-05T18:38:56.711Z,99645.43
2022-08-05T18:44:07.986Z,99641.70
2022-08-05T18:49:56.813Z,99641.60
2022-08-05T18:55:10.291Z,99648.99
2022-08-05T19:00:20.883Z,99651.62
2022-08-05T19:06:12.092Z,99654.64
2022-08-05T19:11:07.107Z,99656.69
2022-08-05T19:16:25.447Z,99655.05
2022-08-05T19:21:40.114Z,99654.00
2022-08-05T19:26:54.904Z,99657.70
2022-08-05T19:32:08.653Z,99661.79
2022-08-05T19:37:20.937Z,99663.48
2022-08-05T19:42:35.903Z,99667.68
2022-08-05T19:47:45.403Z,99671.84
2022-08-05T19:52:54.366Z,99673.23
2022-08-05T19:58:19.614Z,99675.27
2022-08-05T20:03:38.714Z,99676.09
2022-08-05T20:08:50.206Z,99667.18
2022-08-05T20:14:12.809Z,99671.88
2022-08-05T20:19:35.948Z,99672.07
2022-08-05T20:24:46.080Z,99673.13
2022-08-05T20:29:58.282Z,99671.45
2022-08-05T20:35:08.614Z,99666.94
2022-08-05T20:40:18.372Z,99665.52
2022-08-05T20:45:56.088Z,99665.72
2022-08-05T20:50:55.175Z,99667.58
2022-08-05T20:56:09.013Z,99663.44
2022-08-05T21:01:18.831Z,99664.33
2022-08-05T21:06:46.144Z,99664.13
2022-08-05T21:12:10.093Z,99662.99
2022-08-05T21:17:20.576Z,99669.32
2022-08-05T21:22:30.012Z,99672.21
2022-08-05T21:27:39.120Z,99666.55
2022-08-05T21:32:47.234Z,99669.67
2022-08-05T21:37:55.714Z,99660.09
2022-08-05T21:43:05.527Z,99663.09
2022-08-05T21:48:14.262Z,99664.11
2022-08-05T21:53:23.246Z,99663.16
2022-08-05T21:58:36.594Z,99666.38
2022-08-05T22:03:48.625Z,99665.48
2022-08-05T22:09:00.524Z,99663.54
2022-08-05T22:14:34.217Z,99668.79
2022-08-05T22:20:00.332Z,99666.68
2022-08-05T22:25:31.097Z,99663.44
2022-08-05T22:30:56.728Z,99659.06
2022-08-05T22:36:07.703Z,99650.38
2022-08-05T22:41:16.590Z,99649.02
2022-08-05T22:46:45.650Z,99650.89
2022-08-05T22:52:05.217Z,99647.30
2022-08-05T22:57:16.781Z,99644.93
2022-08-05T23:02:29.509Z,99640.38
2022-08-05T23:07:44.997Z,99636.23
2022-08-05T23:12:57.705Z,99645.76
2022-08-05T23:18:15.846Z,99643.09
2022-08-05T23:23:25.160Z,99644.13
2022-08-05T23:28:39.165Z,99647.77
2022-08-05T23:34:05.217Z,99643.91
2022-08-05T23:39:23.704Z,99643.61
2022-08-05T23:44:42.567Z,99638.17
2022-08-05T23:49:55.468Z,99641.71
2022-08-05T23:55:09.015Z,99638.93
